Time;durP1;ratioP1;P1;durP2;ratioP2;P2;SDS_P1;SDS_P2;PMS_P1;PMS_P2;Temp;Humidity;BMP_temperature;BMP_pressure;BME280_temperature;BME280_humidity;BME280_pressure;Samples;Min_cycle;Max_cycle;Signal;HPM_P1;HPM_P2
2023/12/22 00:00:47;;;;;;;31.65;8.52;;;15.40;1.00;;;;;;4950062;29;20051;-73
2023/12/22 00:03:14;;;;;;;29.33;8.40;;;15.50;1.00;;;;;;4949967;29;20569;-75
2023/12/22 00:05:39;;;;;;;31.35;8.88;;;15.50;1.00;;;;;;4950302;29;20416;-74
2023/12/22 00:08:05;;;;;;;26.88;6.47;;;15.40;1.00;;;;;;4950013;28;20039;-74
2023/12/22 00:10:31;;;;;;;25.13;7.00;;;15.40;1.00;;;;;;4933786;29;20481;-73
2023/12/22 00:12:57;;;;;;;24.88;7.00;;;15.30;1.00;;;;;;4949608;29;20556;-73
2023/12/22 00:15:22;;;;;;;30.10;7.05;;;15.30;1.00;;;;;;4948997;29;20122;-73
2023/12/22 00:17:48;;;;;;;36.03;8.98;;;15.40;1.00;;;;;;4948464;28;20050;-74
2023/12/22 00:20:14;;;;;;;24.17;7.22;;;15.80;1.00;;;;;;4949149;29;20449;-74
2023/12/22 00:22:40;;;;;;;19.55;5.90;;;15.40;1.00;;;;;;4948164;28;20043;-75
2023/12/22 00:25:07;;;;;;;16.13;5.15;;;15.40;1.00;;;;;;4948842;29;20417;-74
2023/12/22 00:27:33;;;;;;;17.45;6.57;;;15.40;1.00;;;;;;4949117;29;20043;-72
2023/12/22 00:29:59;;;;;;;18.65;4.25;;;15.40;1.00;;;;;;4948467;29;20043;-72
2023/12/22 00:32:24;;;;;;;24.77;6.85;;;15.40;1.00;;;;;;4949006;29;20492;-73
2023/12/22 00:34:50;;;;;;;26.73;6.68;;;16.10;1.00;;;;;;4948353;29;20134;-73
2023/12/22 00:37:16;;;;;;;33.20;7.43;;;15.40;1.00;;;;;;4948511;29;20039;-74
2023/12/22 00:39:41;;;;;;;25.85;6.72;;;15.30;1.00;;;;;;4948850;29;20095;-73
2023/12/22 00:42:07;;;;;;;29.42;7.60;;;15.40;1.00;;;;;;4948775;29;20062;-72
2023/12/22 00:44:32;;;;;;;33.60;8.25;;;15.40;1.00;;;;;;4948837;29;20039;-73
2023/12/22 00:46:58;;;;;;;30.20;8.73;;;15.50;1.00;;;;;;4948344;29;20090;-74
2023/12/22 00:49:23;;;;;;;23.58;8.07;;;15.30;31.70;;;;;;4948345;29;20136;-74
2023/12/22 00:51:49;;;;;;;28.35;8.35;;;15.30;49.10;;;;;;4932543;29;20047;-73
2023/12/22 00:54:15;;;;;;;30.98;7.28;;;15.20;71.50;;;;;;4948593;29;20424;-73
2023/12/22 00:56:40;;;;;;;34.25;8.50;;;15.20;56.00;;;;;;4948537;29;20123;-75
2023/12/22 00:59:06;;;;;;;26.60;8.70;;;15.20;54.50;;;;;;4947955;29;20600;-74
2023/12/22 01:01:31;;;;;;;20.88;5.22;;;15.20;80.30;;;;;;4948768;29;20097;-74
2023/12/22 01:03:59;;;;;;;25.33;9.30;;;15.20;93.90;;;;;;4948505;29;20058;-74
2023/12/22 01:06:25;;;;;;;27.20;8.70;;;15.00;99.90;;;;;;4948009;29;20433;-74
2023/12/22 01:08:50;;;;;;;25.33;7.50;;;15.10;99.90;;;;;;4946957;29;20768;-74
2023/12/22 01:11:17;;;;;;;29.20;10.48;;;15.20;99.90;;;;;;4947550;29;20087;-74
2023/12/22 01:13:43;;;;;;;23.33;9.00;;;15.70;99.90;;;;;;4947960;29;20050;-74
2023/12/22 01:16:08;;;;;;;28.90;12.10;;;15.20;99.90;;;;;;4947449;29;20445;-74
2023/12/22 01:18:34;;;;;;;36.53;16.17;;;15.60;99.90;;;;;;4947510;28;20095;-75
2023/12/22 01:21:00;;;;;;;25.08;11.55;;;15.10;99.90;;;;;;4948005;29;20516;-74
2023/12/22 01:23:25;;;;;;;33.17;13.68;;;15.10;99.90;;;;;;4932083;29;20039;-75
2023/12/22 01:25:51;;;;;;;24.58;8.35;;;15.20;99.90;;;;;;4932034;29;20139;-75
2023/12/22 01:28:17;;;;;;;21.75;9.85;;;15.20;99.90;;;;;;4947361;29;20058;-74
2023/12/22 01:30:42;;;;;;;23.80;9.48;;;15.10;99.90;;;;;;4948206;28;20433;-74
2023/12/22 01:33:08;;;;;;;24.73;10.20;;;15.30;99.90;;;;;;4931069;29;20413;-74
2023/12/22 01:35:34;;;;;;;31.67;10.95;;;16.40;99.90;;;;;;4947989;29;20051;-73
2023/12/22 01:37:59;;;;;;;31.63;19.15;;;15.50;99.90;;;;;;4947766;29;20050;-74
2023/12/22 01:40:25;;;;;;;27.17;11.60;;;15.40;99.90;;;;;;4947482;29;20043;-74
2023/12/22 01:42:50;;;;;;;33.60;16.75;;;15.40;99.90;;;;;;4947329;29;20039;-74
2023/12/22 01:45:16;;;;;;;48.88;33.95;;;17.90;99.90;;;;;;4947656;29;20936;-74
2023/12/22 01:47:42;;;;;;;47.08;33.42;;;14.20;99.90;;;;;;4947127;29;20071;-73
2023/12/22 01:50:10;;;;;;;39.60;31.63;;;13.80;11.80;;;;;;4946768;29;20405;-74
2023/12/22 01:52:38;;;;;;;35.42;29.00;;;13.90;99.90;;;;;;4947604;29;20039;-71
2023/12/22 01:55:05;;;;;;;40.03;33.10;;;13.90;99.90;;;;;;4947136;29;20079;-73
2023/12/22 01:57:31;;;;;;;45.63;33.13;;;14.20;99.90;;;;;;4947037;29;20051;-74
2023/12/22 01:59:57;;;;;;;43.03;30.92;;;14.20;60.40;;;;;;4947346;29;20114;-71
2023/12/22 02:02:22;;;;;;;63.17;31.85;;;14.40;99.90;;;;;;4931607;29;20051;-74
2023/12/22 02:04:49;;;;;;;32.83;25.75;;;14.30;1.00;;;;;;4946671;29;20152;-74
2023/12/22 02:07:15;;;;;;;37.08;25.10;;;14.50;99.90;;;;;;4946312;29;20153;-75
2023/12/22 02:09:40;;;;;;;34.58;24.52;;;15.00;1.00;;;;;;4931101;29;20051;-74
2023/12/22 02:12:06;;;;;;;40.28;32.80;;;14.60;1.00;;;;;;4947281;29;20050;-73
2023/12/22 02:14:32;;;;;;;50.80;32.13;;;14.40;99.90;;;;;;4947360;29;20050;-74
2023/12/22 02:17:23;;;;;;;26.30;23.65;;;14.10;1.00;;;;;;4930807;29;20051;-74
2023/12/22 02:19:48;;;;;;;32.25;24.67;;;14.00;99.90;;;;;;4930256;29;20050;-73
2023/12/22 02:22:14;;;;;;;38.13;28.90;;;13.70;99.90;;;;;;4946738;29;20042;-73
2023/12/22 02:24:41;;;;;;;39.53;30.10;;;13.80;1.00;;;;;;4946558;29;20556;-75
2023/12/22 02:27:22;;;;;;;29.25;25.02;;;13.80;99.90;;;;;;4930308;29;20409;-74
2023/12/22 02:30:13;;;;;;;50.13;31.90;;;14.00;46.70;;;;;;4946644;29;20051;-74
2023/12/22 02:32:43;;;;;;;38.55;24.15;;;13.90;1.00;;;;;;4930926;29;20153;-74
2023/12/22 02:35:16;;;;;;;38.60;27.67;;;15.10;99.90;;;;;;4947002;29;20039;-72
2023/12/22 02:37:42;;;;;;;27.25;22.30;;;15.40;99.90;;;;;;4946921;29;20440;-74
2023/12/22 02:40:09;;;;;;;27.70;23.20;;;14.10;1.00;;;;;;4946383;29;20417;-74
2023/12/22 02:42:36;;;;;;;47.17;28.65;;;14.20;1.00;;;;;;4946990;29;20509;-74
2023/12/22 02:45:03;;;;;;;27.92;22.90;;;14.30;1.00;;;;;;4947106;28;20047;-75
2023/12/22 02:47:29;;;;;;;36.55;27.83;;;14.40;99.90;;;;;;4930811;29;20078;-74
2023/12/22 02:49:55;;;;;;;26.80;23.88;;;14.30;99.90;;;;;;4947207;29;20409;-75
2023/12/22 02:52:20;;;;;;;45.17;27.90;;;14.40;1.00;;;;;;4930655;29;20402;-74
2023/12/22 02:54:47;;;;;;;46.67;28.48;;;14.70;1.00;;;;;;4946299;29;20501;-73
2023/12/22 02:57:13;;;;;;;38.40;25.30;;;14.60;1.00;;;;;;4946865;29;20130;-72
2023/12/22 02:59:38;;;;;;;35.65;25.17;;;14.50;99.90;;;;;;4946850;29;20545;-73
2023/12/22 03:02:04;;;;;;;25.02;19.02;;;14.80;59.60;;;;;;4946871;29;20588;-73
2023/12/22 03:04:29;;;;;;;40.13;22.20;;;14.80;1.00;;;;;;4947181;29;20099;-74
2023/12/22 03:06:55;;;;;;;33.20;20.38;;;14.70;5.40;;;;;;4930046;29;20416;-74
2023/12/22 03:09:21;;;;;;;20.55;14.15;;;14.70;1.00;;;;;;4930327;29;20047;-73
2023/12/22 03:11:47;;;;;;;15.93;11.88;;;15.30;1.00;;;;;;4930424;29;20708;-73
2023/12/22 03:14:13;;;;;;;28.15;13.98;;;14.90;1.00;;;;;;4946463;29;20050;-73
2023/12/22 03:16:39;;;;;;;26.30;13.68;;;14.80;1.00;;;;;;4930306;29;20509;-73
2023/12/22 03:19:06;;;;;;;24.30;10.80;;;15.20;1.00;;;;;;4945492;28;20062;-74
2023/12/22 03:21:32;;;;;;;26.65;11.93;;;14.90;99.90;;;;;;4946748;29;20095;-74
2023/12/22 03:23:57;;;;;;;24.48;11.30;;;14.80;99.90;;;;;;4945885;29;20090;-73
2023/12/22 03:26:23;;;;;;;19.20;7.40;;;14.80;99.90;;;;;;4945870;29;20359;-73
2023/12/22 03:28:48;;;;;;;32.50;9.52;;;14.90;99.90;;;;;;4945685;29;20472;-74
2023/12/22 03:31:14;;;;;;;23.42;9.50;;;14.80;99.90;;;;;;4945999;29;20126;-74
2023/12/22 03:33:40;;;;;;;18.88;7.55;;;14.90;99.90;;;;;;4946263;29;20560;-75
2023/12/22 03:36:05;;;;;;;21.15;7.32;;;15.30;99.90;;;;;;4930298;29;20059;-73
2023/12/22 03:38:31;;;;;;;23.83;7.80;;;14.90;99.90;;;;;;4946278;29;20055;-74
2023/12/22 03:40:57;;;;;;;21.20;7.63;;;14.80;99.90;;;;;;4945987;29;20043;-73
2023/12/22 03:43:22;;;;;;;24.23;7.60;;;14.90;99.90;;;;;;4945982;29;20051;-72
2023/12/22 03:45:48;;;;;;;16.90;4.85;;;14.90;99.90;;;;;;4929369;29;20130;-73
2023/12/22 03:48:13;;;;;;;27.90;7.72;;;14.90;99.90;;;;;;4948171;28;20387;-73
2023/12/22 03:50:39;;;;;;;27.13;8.18;;;15.50;99.90;;;;;;4946291;29;20137;-74
2023/12/22 03:53:04;;;;;;;17.73;4.38;;;14.80;99.90;;;;;;4945989;29;20039;-74
2023/12/22 03:55:30;;;;;;;29.15;8.77;;;14.90;99.90;;;;;;4946226;29;20047;-73
2023/12/22 03:57:55;;;;;;;16.40;4.97;;;14.80;99.90;;;;;;4948547;28;20082;-75
2023/12/22 04:00:21;;;;;;;10.35;3.85;;;14.80;99.90;;;;;;4949425;29;20046;-74
2023/12/22 04:02:46;;;;;;;20.48;7.72;;;15.70;99.90;;;;;;4933464;29;20047;-74
2023/12/22 04:05:12;;;;;;;22.13;7.65;;;15.10;99.90;;;;;;4949450;29;20051;-75
2023/12/22 04:07:37;;;;;;;21.95;6.82;;;15.00;99.90;;;;;;4948658;29;20051;-74
2023/12/22 04:10:03;;;;;;;25.23;7.45;;;15.00;99.90;;;;;;4949596;29;20061;-74
2023/12/22 04:12:29;;;;;;;19.30;5.63;;;15.00;99.90;;;;;;4949577;29;20059;-73
2023/12/22 04:14:54;;;;;;;22.45;8.43;;;14.90;99.90;;;;;;4949622;29;20051;-74
2023/12/22 04:17:20;;;;;;;25.05;8.65;;;15.60;99.90;;;;;;4948020;29;20047;-73
2023/12/22 04:19:45;;;;;;;20.17;7.43;;;15.00;99.90;;;;;;4948970;28;20420;-73
2023/12/22 04:22:11;;;;;;;24.00;9.60;;;15.50;99.90;;;;;;4948962;29;20047;-73
2023/12/22 04:24:36;;;;;;;26.88;10.80;;;15.10;99.90;;;;;;4948987;29;20150;-75
2023/12/22 04:27:02;;;;;;;26.63;12.85;;;15.10;99.90;;;;;;4948833;28;20503;-74
2023/12/22 04:29:28;;;;;;;15.82;8.20;;;15.10;99.90;;;;;;4949865;29;20401;-74
2023/12/22 04:31:53;;;;;;;24.27;8.77;;;15.10;99.90;;;;;;4933013;29;20045;-74
2023/12/22 04:34:19;;;;;;;29.27;11.38;;;15.10;99.90;;;;;;4948601;29;20055;-74
2023/12/22 04:36:44;;;;;;;30.02;12.50;;;15.20;99.90;;;;;;4947937;29;20132;-73
2023/12/22 04:39:10;;;;;;;30.25;10.98;;;15.30;99.90;;;;;;4948656;29;20047;-73
2023/12/22 04:41:35;;;;;;;11.52;5.20;;;15.20;99.90;;;;;;4948751;29;20054;-74
2023/12/22 04:44:03;;;;;;;26.67;8.95;;;15.20;99.90;;;;;;4947856;29;20039;-73
2023/12/22 04:46:29;;;;;;;23.35;8.00;;;15.20;99.90;;;;;;4931894;29;20378;-73
2023/12/22 04:48:55;;;;;;;24.38;8.30;;;15.20;99.90;;;;;;4948953;29;20051;-74
2023/12/22 04:51:21;;;;;;;27.52;10.27;;;16.00;99.90;;;;;;4948783;29;20046;-74
2023/12/22 04:53:46;;;;;;;31.55;11.77;;;15.20;99.90;;;;;;4948768;29;20066;-75
2023/12/22 04:56:12;;;;;;;26.55;11.45;;;15.20;99.90;;;;;;4948473;29;20835;-74
2023/12/22 04:58:37;;;;;;;24.08;11.15;;;15.10;99.90;;;;;;4949170;29;20054;-75
2023/12/22 05:01:03;;;;;;;23.65;8.52;;;15.20;99.90;;;;;;4948968;29;20043;-75
2023/12/22 05:03:29;;;;;;;15.35;6.50;;;15.20;99.90;;;;;;4948933;29;20386;-74
2023/12/22 05:05:54;;;;;;;29.52;9.50;;;15.10;99.90;;;;;;4948247;29;20050;-73
2023/12/22 05:08:20;;;;;;;35.63;12.15;;;15.10;99.90;;;;;;4947204;28;20572;-73
2023/12/22 05:10:45;;;;;;;37.25;13.05;;;15.10;99.90;;;;;;4948275;29;20047;-74
2023/12/22 05:13:11;;;;;;;29.48;11.55;;;15.00;99.90;;;;;;4932474;29;20106;-73
2023/12/22 05:15:36;;;;;;;33.70;12.13;;;15.10;99.90;;;;;;4948212;29;20051;-74
2023/12/22 05:18:02;;;;;;;28.33;11.90;;;15.20;99.90;;;;;;4946896;28;20674;-73
2023/12/22 05:20:28;;;;;;;19.45;8.10;;;15.10;99.90;;;;;;4948225;29;20133;-73
2023/12/22 05:22:54;;;;;;;41.92;13.00;;;15.10;99.90;;;;;;4948073;29;20051;-75
2023/12/22 05:25:19;;;;;;;25.38;10.02;;;15.90;99.90;;;;;;4948154;28;20596;-74
2023/12/22 05:27:45;;;;;;;26.20;10.40;;;15.10;99.90;;;;;;4947785;29;20055;-73
2023/12/22 05:30:11;;;;;;;24.05;9.35;;;15.10;99.90;;;;;;4948060;29;20070;-75
2023/12/22 05:32:37;;;;;;;33.95;10.77;;;15.10;99.90;;;;;;4947757;29;20669;-74
2023/12/22 05:35:02;;;;;;;23.35;8.85;;;15.00;99.90;;;;;;4948367;29;20039;-73
2023/12/22 05:37:28;;;;;;;13.30;6.60;;;15.20;99.90;;;;;;4932210;29;20583;-74
2023/12/22 05:39:53;;;;;;;26.77;10.70;;;15.20;99.90;;;;;;4947175;29;20035;-75
2023/12/22 05:42:19;;;;;;;28.33;10.77;;;15.40;99.90;;;;;;4947796;29;20161;-74
2023/12/22 05:44:49;;;;;;;25.73;9.73;;;15.10;99.90;;;;;;4947227;29;20055;-74
2023/12/22 05:47:15;;;;;;;18.27;7.95;;;15.20;99.90;;;;;;4947277;29;20596;-71
2023/12/22 05:49:41;;;;;;;28.02;9.70;;;15.20;99.90;;;;;;4947413;29;20058;-74
2023/12/22 05:52:09;;;;;;;26.33;10.52;;;15.20;99.90;;;;;;4931588;29;20047;-73
2023/12/22 05:54:34;;;;;;;24.27;8.80;;;15.20;99.90;;;;;;4947209;29;20055;-74
2023/12/22 05:57:00;;;;;;;28.88;9.23;;;15.20;99.90;;;;;;4947416;29;20456;-74
2023/12/22 05:59:27;;;;;;;22.55;11.05;;;15.20;99.90;;;;;;4947575;29;20054;-74
2023/12/22 06:01:53;;;;;;;26.27;9.65;;;15.20;99.90;;;;;;4931326;29;20043;-74
2023/12/22 06:04:19;;;;;;;28.10;10.02;;;15.20;99.90;;;;;;4947619;29;20047;-75
2023/12/22 06:06:45;;;;;;;24.65;9.55;;;15.30;99.90;;;;;;4947423;29;20053;-76
2023/12/22 06:09:12;;;;;;;24.40;9.40;;;15.20;99.90;;;;;;4947514;29;20185;-74
2023/12/22 06:11:39;;;;;;;23.55;9.60;;;15.30;99.90;;;;;;4947343;29;20047;-74
2023/12/22 06:14:05;;;;;;;32.35;12.50;;;15.30;99.90;;;;;;4947384;29;20057;-74
2023/12/22 06:16:31;;;;;;;35.35;11.85;;;15.20;99.90;;;;;;4946416;29;20039;-74
2023/12/22 06:18:56;;;;;;;24.95;10.38;;;15.20;99.90;;;;;;4946731;28;20062;-73
2023/12/22 06:21:22;;;;;;;28.45;10.93;;;15.20;99.90;;;;;;4930422;29;20557;-69
2023/12/22 06:23:48;;;;;;;27.10;10.02;;;15.10;99.90;;;;;;4937652;29;20047;-74
2023/12/22 06:26:13;;;;;;;28.48;10.55;;;15.20;99.90;;;;;;4941347;29;20047;-74
2023/12/22 06:28:40;;;;;;;31.02;14.10;;;15.20;99.90;;;;;;4945393;29;20058;-74
2023/12/22 06:31:06;;;;;;;31.52;15.77;;;15.10;99.90;;;;;;4945817;29;20043;-75
2023/12/22 06:33:32;;;;;;;34.25;18.08;;;15.20;99.90;;;;;;4946151;29;20050;-75
2023/12/22 06:35:58;;;;;;;34.28;17.92;;;15.20;1.00;;;;;;4945931;29;20383;-75
2023/12/22 06:38:23;;;;;;;17.80;13.18;;;15.20;1.00;;;;;;4946194;29;20070;-74
2023/12/22 06:40:50;;;;;;;49.25;26.70;;;15.30;99.90;;;;;;4946053;29;20054;-75
2023/12/22 06:43:16;;;;;;;44.78;32.38;;;15.20;99.90;;;;;;4945822;28;20055;-75
2023/12/22 06:45:41;;;;;;;42.60;30.67;;;15.20;99.90;;;;;;4945802;29;20157;-75
2023/12/22 06:48:09;;;;;;;64.28;35.75;;;15.20;99.90;;;;;;4928886;29;20058;-74
2023/12/22 06:50:36;;;;;;;54.08;35.33;;;15.10;1.00;;;;;;4942841;29;20501;-74
2023/12/22 06:53:02;;;;;;;57.50;34.30;;;15.10;1.00;;;;;;4945640;29;20082;-74
2023/12/22 06:55:28;;;;;;;44.47;30.48;;;14.90;1.00;;;;;;4942066;29;20449;-74
2023/12/22 06:57:55;;;;;;;43.35;31.90;;;15.30;7.20;;;;;;4928951;29;20559;-75
2023/12/22 07:00:21;;;;;;;48.33;31.73;;;15.20;99.90;;;;;;4944520;29;20054;-74
2023/12/22 07:02:46;;;;;;;39.45;29.73;;;15.00;99.90;;;;;;4943941;29;20043;-74
2023/12/22 07:05:21;;;;;;;50.78;28.92;;;15.00;43.80;;;;;;4929717;29;20055;-74
2023/12/22 07:07:47;;;;;;;44.35;31.58;;;15.20;1.00;;;;;;4944492;29;20134;-74
2023/12/22 07:10:12;;;;;;;45.88;27.05;;;15.00;99.90;;;;;;4945628;29;20050;-77
2023/12/22 07:12:39;;;;;;;35.03;25.38;;;15.00;99.90;;;;;;4942597;29;20200;-76
2023/12/22 07:15:06;;;;;;;40.97;29.88;;;15.80;1.00;;;;;;4942972;29;20143;-75
2023/12/22 07:17:32;;;;;;;51.63;32.90;;;15.50;99.90;;;;;;4940997;28;20043;-67
2023/12/22 07:19:58;;;;;;;45.22;31.02;;;15.60;99.90;;;;;;4952223;28;20043;-67
2023/12/22 07:22:23;;;;;;;41.08;30.92;;;15.20;99.90;;;;;;4943991;29;20054;-68
2023/12/22 07:24:51;;;;;;;28.85;25.20;;;15.40;51.60;;;;;;4943553;28;20039;-67
2023/12/22 07:27:17;;;;;;;38.30;31.67;;;15.30;99.90;;;;;;4942228;29;20437;-67
2023/12/22 07:29:42;;;;;;;36.70;31.45;;;15.20;99.90;;;;;;4944478;28;20051;-67
2023/12/22 07:32:08;;;;;;;38.47;32.30;;;14.90;99.90;;;;;;4946329;28;20126;-68
2023/12/22 07:34:34;;;;;;;42.75;31.95;;;15.00;1.00;;;;;;4946795;29;20466;-68
2023/12/22 07:36:59;;;;;;;39.38;29.92;;;15.00;99.90;;;;;;4948397;29;20078;-77
2023/12/22 07:39:25;;;;;;;34.00;29.00;;;15.60;1.00;;;;;;4949067;28;20501;-75
2023/12/22 07:41:50;;;;;;;35.67;28.58;;;14.80;1.00;;;;;;4947847;28;20727;-65
2023/12/22 07:44:16;;;;;;;36.65;27.38;;;14.90;1.00;;;;;;4946393;29;20142;-67
2023/12/22 07:46:41;;;;;;;39.05;28.73;;;14.70;1.00;;;;;;4946844;29;20046;-68
2023/12/22 07:49:07;;;;;;;43.83;29.77;;;15.40;99.90;;;;;;4946718;28;20078;-68
2023/12/22 07:51:32;;;;;;;44.28;30.10;;;14.90;99.90;;;;;;4945288;28;20047;-68
2023/12/22 07:53:58;;;;;;;50.05;30.73;;;14.90;99.90;;;;;;4945397;29;20057;-68
2023/12/22 07:56:24;;;;;;;45.40;31.73;;;15.00;99.90;;;;;;4942074;29;20077;-68
2023/12/22 07:58:49;;;;;;;49.45;31.95;;;14.70;1.00;;;;;;4943460;29;20134;-67
2023/12/22 08:01:15;;;;;;;43.00;32.72;;;14.60;1.00;;;;;;4944239;28;20031;-66
2023/12/22 08:03:41;;;;;;;46.70;33.58;;;14.80;99.90;;;;;;4948510;28;20141;-66
2023/12/22 08:06:06;;;;;;;32.90;28.00;;;14.50;1.00;;;;;;4946540;28;20078;-65
2023/12/22 08:08:33;;;;;;;37.55;27.55;;;14.60;99.90;;;;;;4944811;28;20039;-65
2023/12/22 08:10:59;;;;;;;52.75;32.17;;;14.70;99.90;;;;;;4946303;29;20050;-66
2023/12/22 08:13:24;;;;;;;48.53;30.63;;;14.80;1.00;;;;;;4946235;29;20486;-66
2023/12/22 08:15:50;;;;;;;37.55;26.52;;;14.30;1.00;;;;;;4947113;29;20209;-66
2023/12/22 08:18:16;;;;;;;37.97;28.75;;;14.60;1.00;;;;;;4947471;28;20047;-67
2023/12/22 08:20:41;;;;;;;42.53;31.40;;;14.70;1.00;;;;;;4940912;29;20137;-66
2023/12/22 08:23:07;;;;;;;44.97;29.20;;;14.70;57.20;;;;;;4939891;29;20466;-66
2023/12/22 08:25:33;;;;;;;32.30;26.02;;;14.70;1.00;;;;;;4941632;29;20047;-66
2023/12/22 08:27:58;;;;;;;43.47;31.17;;;14.60;1.00;;;;;;4938168;28;21100;-66
2023/12/22 08:30:24;;;;;;;43.15;30.00;;;14.40;1.00;;;;;;4935005;28;20466;-66
2023/12/22 08:32:50;;;;;;;40.50;29.45;;;14.70;1.00;;;;;;4936758;28;20372;-66
2023/12/22 08:35:16;;;;;;;46.90;29.13;;;15.00;1.00;;;;;;4938171;29;20047;-65
2023/12/22 08:37:42;;;;;;;44.58;29.63;;;14.80;1.00;;;;;;4942162;29;20085;-66
2023/12/22 08:40:08;;;;;;;36.50;25.52;;;14.60;99.90;;;;;;4943483;29;20039;-66
2023/12/22 08:42:33;;;;;;;48.30;27.70;;;14.80;99.90;;;;;;4947700;28;20054;-67
2023/12/22 08:44:59;;;;;;;24.67;22.05;;;14.50;99.90;;;;;;4944934;29;20564;-67
2023/12/22 08:47:25;;;;;;;39.42;26.40;;;14.70;99.90;;;;;;4939504;29;20436;-67
2023/12/22 08:49:51;;;;;;;36.83;24.95;;;14.60;1.00;;;;;;4946547;29;20057;-67
2023/12/22 08:52:16;;;;;;;22.90;20.65;;;14.80;1.00;;;;;;4940684;29;20047;-66
2023/12/22 08:54:42;;;;;;;38.20;26.88;;;14.50;99.90;;;;;;4938839;29;20039;-66
2023/12/22 08:57:09;;;;;;;30.23;21.70;;;14.80;38.80;;;;;;4937803;29;20043;-67
2023/12/22 08:59:34;;;;;;;33.58;21.70;;;14.90;99.90;;;;;;4939734;29;20039;-68
2023/12/22 09:02:00;;;;;;;36.97;27.70;;;14.80;99.90;;;;;;4940178;29;20046;-68
2023/12/22 09:04:25;;;;;;;40.45;27.83;;;15.00;1.00;;;;;;4939955;29;20058;-69
2023/12/22 09:06:51;;;;;;;37.70;28.50;;;14.80;99.90;;;;;;4943345;29;20485;-67
2023/12/22 09:09:17;;;;;;;38.83;29.73;;;14.90;1.00;;;;;;4927150;29;20054;-68
2023/12/22 09:11:43;;;;;;;44.25;29.05;;;15.00;1.00;;;;;;4945262;28;20159;-67
2023/12/22 09:14:09;;;;;;;41.40;28.17;;;15.00;1.00;;;;;;4941734;29;20046;-69
2023/12/22 09:16:35;;;;;;;42.17;27.90;;;15.00;96.50;;;;;;4941667;29;20050;-69
2023/12/22 09:19:01;;;;;;;46.58;27.92;;;15.10;99.90;;;;;;4938473;28;20051;-68
2023/12/22 09:21:27;;;;;;;47.15;27.92;;;15.10;99.90;;;;;;4942505;28;20083;-67
2023/12/22 09:23:52;;;;;;;40.15;25.80;;;15.10;99.90;;;;;;4944837;29;20075;-69
2023/12/22 09:26:18;;;;;;;38.92;28.92;;;15.50;99.90;;;;;;4945593;29;20062;-67
2023/12/22 09:28:45;;;;;;;41.28;29.83;;;14.90;99.90;;;;;;4942837;29;20116;-68
2023/12/22 09:31:12;;;;;;;35.80;27.13;;;15.10;99.90;;;;;;4941352;29;20452;-69
2023/12/22 09:33:38;;;;;;;37.20;29.45;;;14.90;99.90;;;;;;4940862;29;20070;-68
2023/12/22 09:36:04;;;;;;;45.92;30.52;;;15.00;1.00;;;;;;4942190;29;20484;-69
2023/12/22 09:38:29;;;;;;;38.83;28.13;;;14.80;1.00;;;;;;4940154;29;20052;-68
2023/12/22 09:40:56;;;;;;;42.60;28.00;;;15.20;1.00;;;;;;4941137;29;20039;-69
2023/12/22 09:43:22;;;;;;;30.10;24.98;;;14.70;1.00;;;;;;4941387;29;20311;-67
2023/12/22 09:45:49;;;;;;;38.35;26.88;;;14.70;3.90;;;;;;4940222;29;20158;-68
2023/12/22 09:48:17;;;;;;;36.92;25.98;;;14.70;56.40;;;;;;4940478;29;20055;-67
2023/12/22 09:50:46;;;;;;;33.83;26.65;;;15.20;56.20;;;;;;4938953;29;20042;-68
2023/12/22 09:53:16;;;;;;;33.33;25.63;;;15.40;99.90;;;;;;4939771;28;20155;-68
2023/12/22 09:55:46;;;;;;;31.83;25.98;;;15.20;99.90;;;;;;4940105;29;20054;-69
2023/12/22 09:58:14;;;;;;;30.45;27.25;;;14.80;99.90;;;;;;4939465;29;20402;-68
2023/12/22 10:00:40;;;;;;;36.05;27.02;;;15.20;99.90;;;;;;4939282;28;20130;-68
2023/12/22 10:03:14;;;;;;;34.28;28.00;;;14.70;99.90;;;;;;4941162;29;20046;-68
2023/12/22 10:05:43;;;;;;;33.22;27.17;;;14.70;99.90;;;;;;4938694;29;20125;-67
2023/12/22 10:08:12;;;;;;;27.73;24.08;;;15.30;99.90;;;;;;4937611;29;20043;-67
2023/12/22 10:10:43;;;;;;;25.75;23.33;;;14.80;99.90;;;;;;4938862;29;20042;-69
2023/12/22 10:13:09;;;;;;;37.53;28.13;;;15.30;99.90;;;;;;4940483;29;20035;-69
2023/12/22 10:15:42;;;;;;;36.28;26.52;;;15.40;99.90;;;;;;4940600;29;20429;-68
2023/12/22 10:18:08;;;;;;;33.85;25.48;;;15.30;99.90;;;;;;4942513;28;20051;-68
2023/12/22 10:20:35;;;;;;;35.30;25.38;;;15.40;99.90;;;;;;4946623;28;20111;-69
2023/12/22 10:23:01;;;;;;;33.25;26.35;;;14.90;99.90;;;;;;4941670;29;20405;-68
2023/12/22 10:25:30;;;;;;;38.47;26.98;;;15.00;99.90;;;;;;4945054;29;20058;-68
2023/12/22 10:27:56;;;;;;;29.58;24.27;;;15.50;99.90;;;;;;4938438;28;20514;-68
2023/12/22 10:30:24;;;;;;;31.13;25.15;;;15.10;99.90;;;;;;4939559;29;20456;-69
2023/12/22 10:32:51;;;;;;;28.98;22.92;;;15.50;99.90;;;;;;4942478;28;20050;-69
2023/12/22 10:35:17;;;;;;;28.92;24.00;;;16.00;99.90;;;;;;4946763;29;20490;-69
2023/12/22 10:37:43;;;;;;;30.48;24.50;;;15.10;99.90;;;;;;4947488;28;20055;-69
2023/12/22 10:40:09;;;;;;;23.02;20.73;;;15.60;94.20;;;;;;4946830;29;20066;-69
2023/12/22 10:42:35;;;;;;;33.17;25.33;;;15.70;99.90;;;;;;4945047;28;20051;-69
2023/12/22 10:45:01;;;;;;;39.45;26.77;;;15.10;99.90;;;;;;4943987;29;20043;-69
2023/12/22 10:47:29;;;;;;;40.88;26.55;;;15.30;99.90;;;;;;4945749;28;20043;-68
2023/12/22 10:49:54;;;;;;;39.70;26.63;;;15.70;99.90;;;;;;4947736;28;20531;-69
2023/12/22 10:52:23;;;;;;;42.95;27.20;;;15.80;99.90;;;;;;4944773;29;20035;-68
2023/12/22 10:54:49;;;;;;;33.92;24.83;;;15.80;99.90;;;;;;4945163;29;20412;-69
2023/12/22 10:57:19;;;;;;;39.03;25.58;;;15.10;99.90;;;;;;4943679;28;20374;-69
2023/12/22 10:59:46;;;;;;;36.70;26.17;;;15.80;99.90;;;;;;4962389;28;20050;-68
2023/12/22 11:02:20;;;;;;;41.58;26.75;;;15.80;99.90;;;;;;4941905;28;20051;-68
2023/12/22 11:04:55;;;;;;;31.23;24.95;;;15.70;99.90;;;;;;4946075;29;20126;-67
2023/12/22 11:07:24;;;;;;;32.40;25.98;;;16.10;99.90;;;;;;4947645;28;20069;-68
2023/12/22 11:09:51;;;;;;;40.72;27.25;;;15.50;99.90;;;;;;4950246;29;20378;-69
2023/12/22 11:12:18;;;;;;;35.38;22.67;;;15.60;99.90;;;;;;4948444;29;20637;-67
2023/12/22 11:14:50;;;;;;;33.58;22.55;;;15.80;99.90;;;;;;4942307;28;20040;-66
2023/12/22 11:17:21;;;;;;;34.28;23.30;;;15.40;99.90;;;;;;4947779;28;20812;-67
2023/12/22 11:19:50;;;;;;;38.03;24.92;;;15.60;99.90;;;;;;4935761;28;20391;-67
2023/12/22 11:22:19;;;;;;;32.08;23.40;;;15.90;99.90;;;;;;4939870;29;20088;-68
2023/12/22 11:24:49;;;;;;;31.85;23.83;;;15.40;1.00;;;;;;4948601;28;20051;-68
2023/12/22 11:27:19;;;;;;;32.58;22.73;;;15.80;1.00;;;;;;4946324;29;20054;-68
2023/12/22 11:29:51;;;;;;;34.80;23.60;;;15.30;1.00;;;;;;4947375;29;20425;-68
2023/12/22 11:32:19;;;;;;;30.30;22.40;;;15.30;1.00;;;;;;4948304;28;20479;-68
2023/12/22 11:34:46;;;;;;;30.85;22.15;;;15.80;1.00;;;;;;4945873;29;20047;-67
2023/12/22 11:37:16;;;;;;;29.02;20.67;;;15.70;99.90;;;;;;4950414;28;20058;-68
2023/12/22 11:39:43;;;;;;;26.25;20.20;;;15.80;99.90;;;;;;4946036;28;20094;-67
2023/12/22 11:42:23;;;;;;;29.58;22.38;;;15.80;99.90;;;;;;4947063;29;20126;-68
2023/12/22 11:44:48;;;;;;;32.00;21.92;;;15.30;99.90;;;;;;4943411;28;20051;-68
2023/12/22 11:47:14;;;;;;;32.75;21.10;;;15.30;99.90;;;;;;4947241;29;20047;-69
2023/12/22 11:49:40;;;;;;;29.98;22.13;;;15.80;99.90;;;;;;4946213;29;20104;-68
2023/12/22 11:52:13;;;;;;;34.30;23.40;;;15.80;94.90;;;;;;4948856;28;20043;-68
2023/12/22 11:54:50;;;;;;;34.05;22.13;;;15.60;24.40;;;;;;4961733;28;20043;-68
2023/12/22 11:57:42;;;;;;;32.95;22.10;;;15.30;42.80;;;;;;4949197;29;20149;-68
2023/12/22 12:00:21;;;;;;;34.70;22.65;;;15.70;1.00;;;;;;4943643;29;20153;-68
2023/12/22 12:02:54;;;;;;;39.72;24.27;;;15.30;1.00;;;;;;4945184;28;20047;-68
2023/12/22 12:05:20;;;;;;;37.35;23.98;;;15.60;1.00;;;;;;4947597;28;20078;-67
2023/12/22 12:07:48;;;;;;;32.78;23.77;;;15.30;1.00;;;;;;4948783;29;20106;-67
2023/12/22 12:10:36;;;;;;;28.80;22.58;;;15.40;1.00;;;;;;4945512;28;20138;-68
2023/12/22 12:13:09;;;;;;;30.05;23.48;;;15.40;1.00;;;;;;4944690;29;20125;-67
2023/12/22 12:15:35;;;;;;;33.80;22.83;;;15.30;1.00;;;;;;4944684;28;20114;-67
2023/12/22 12:18:02;;;;;;;28.85;22.60;;;15.40;1.60;;;;;;4925183;28;20102;-73
2023/12/22 12:20:27;;;;;;;31.27;21.92;;;15.40;87.30;;;;;;4941154;28;20044;-75
2023/12/22 12:22:54;;;;;;;32.17;24.05;;;15.80;99.90;;;;;;4936938;28;20547;-67
2023/12/22 12:25:25;;;;;;;32.85;22.60;;;16.10;99.90;;;;;;4940364;29;20059;-68
2023/12/22 12:28:04;;;;;;;32.85;23.95;;;15.50;1.00;;;;;;4933713;28;20047;-68
2023/12/22 12:30:31;;;;;;;32.42;22.30;;;16.10;99.90;;;;;;4938216;29;20098;-67